Time;durP1;ratioP1;P1;durP2;ratioP2;P2;SDS_P1;SDS_P2;PMS_P1;PMS_P2;Temp;Humidity;BMP_temperature;BMP_pressure;BME280_temperature;BME280_humidity;BME280_pressure;Samples;Min_cycle;Max_cycle;Signal;HPM_P1;HPM_P2
2022/02/14 00:00:22;;;;;;;13.45;8.68;;;2.80;84.00;;;;;;1903439;75;21078;-45
2022/02/14 00:02:51;;;;;;;13.25;8.45;;;2.70;84.10;;;;;;1903579;75;21101;-45
2022/02/14 00:05:20;;;;;;;14.55;8.18;;;2.70;84.10;;;;;;1900837;75;21063;-45
2022/02/14 00:07:52;;;;;;;14.85;8.13;;;2.70;84.00;;;;;;1898443;75;21095;-45
2022/02/14 00:10:21;;;;;;;14.73;8.38;;;2.70;84.10;;;;;;1898718;75;21047;-45
2022/02/14 00:12:51;;;;;;;15.60;8.30;;;2.70;84.50;;;;;;1898539;75;21032;-45
2022/02/14 00:15:21;;;;;;;17.57;10.88;;;2.70;84.10;;;;;;1898466;75;21031;-45
2022/02/14 00:17:51;;;;;;;17.80;9.95;;;2.70;84.20;;;;;;1898648;75;21027;-46
2022/02/14 00:20:20;;;;;;;21.15;12.03;;;2.70;84.20;;;;;;1898446;75;21031;-45
2022/02/14 00:22:50;;;;;;;34.70;13.60;;;2.70;84.20;;;;;;1898525;75;21035;-45
2022/02/14 00:25:19;;;;;;;26.07;11.60;;;2.60;84.30;;;;;;1898491;75;21019;-45
2022/02/14 00:27:49;;;;;;;22.85;12.13;;;2.60;84.10;;;;;;1898565;75;21004;-45
2022/02/14 00:30:19;;;;;;;25.20;11.97;;;2.60;84.30;;;;;;1898556;75;21035;-45
2022/02/14 00:32:48;;;;;;;32.10;13.78;;;2.60;84.30;;;;;;1898591;75;21442;-45
2022/02/14 00:35:18;;;;;;;29.20;12.43;;;2.60;84.40;;;;;;1898461;75;21035;-46
2022/02/14 00:37:48;;;;;;;28.62;13.58;;;2.60;84.50;;;;;;1898531;75;21117;-45
2022/02/14 00:40:17;;;;;;;29.70;13.70;;;2.60;84.50;;;;;;1898583;75;21097;-45
2022/02/14 00:42:47;;;;;;;24.57;12.55;;;2.60;84.50;;;;;;1898563;75;21007;-45
2022/02/14 00:45:16;;;;;;;26.23;12.88;;;2.60;84.60;;;;;;1898460;75;21094;-45
2022/02/14 00:47:45;;;;;;;23.55;11.80;;;2.60;84.70;;;;;;1898530;75;21035;-45
2022/02/14 00:50:16;;;;;;;18.25;11.18;;;2.60;84.70;;;;;;1898425;75;21035;-46
2022/02/14 00:52:45;;;;;;;21.00;13.72;;;2.50;84.70;;;;;;1898480;75;21109;-45
2022/02/14 00:55:17;;;;;;;16.40;9.95;;;2.50;84.70;;;;;;1898420;75;21008;-45
2022/02/14 00:57:47;;;;;;;17.70;10.30;;;2.50;84.70;;;;;;1898386;75;21137;-45
2022/02/14 01:00:16;;;;;;;17.12;9.90;;;2.50;84.70;;;;;;1898344;75;21011;-45
2022/02/14 01:02:46;;;;;;;21.02;10.05;;;2.50;84.80;;;;;;1898452;75;21446;-45
2022/02/14 01:05:16;;;;;;;17.40;9.80;;;2.50;84.90;;;;;;1898343;75;21129;-45
2022/02/14 01:07:45;;;;;;;16.10;9.85;;;2.50;84.90;;;;;;1898377;75;21027;-45
2022/02/14 01:10:15;;;;;;;21.02;10.55;;;2.50;84.90;;;;;;1898320;75;21109;-45
2022/02/14 01:12:45;;;;;;;14.40;10.15;;;2.50;84.90;;;;;;1898355;75;21114;-45
2022/02/14 01:15:14;;;;;;;17.50;8.88;;;2.50;84.90;;;;;;1898414;75;21077;-45
2022/02/14 01:17:43;;;;;;;15.75;9.50;;;2.50;84.90;;;;;;1898340;75;21079;-45
2022/02/14 01:20:13;;;;;;;16.50;11.08;;;2.50;85.00;;;;;;1898350;75;21074;-45
2022/02/14 01:22:42;;;;;;;15.30;9.95;;;2.50;85.00;;;;;;1898378;75;21148;-45
2022/02/14 01:25:13;;;;;;;15.75;10.20;;;2.50;85.20;;;;;;1898428;75;21486;-45
2022/02/14 01:27:42;;;;;;;14.68;9.63;;;2.50;85.20;;;;;;1898331;75;21093;-45
2022/02/14 01:30:12;;;;;;;21.30;10.98;;;2.50;85.10;;;;;;1898450;75;21043;-46
2022/02/14 01:32:42;;;;;;;16.37;11.25;;;2.50;85.20;;;;;;1898328;75;21027;-45
2022/02/14 01:35:11;;;;;;;19.85;10.30;;;2.50;85.20;;;;;;1898507;75;21069;-45
2022/02/14 01:37:40;;;;;;;16.20;10.40;;;2.50;85.20;;;;;;1898305;75;21108;-45
2022/02/14 01:40:12;;;;;;;23.47;11.53;;;2.50;85.30;;;;;;1898419;75;21031;-45
2022/02/14 01:42:41;;;;;;;18.48;11.05;;;2.50;85.30;;;;;;1898546;75;21062;-45
2022/02/14 01:45:11;;;;;;;17.07;9.75;;;2.50;85.30;;;;;;1898349;75;21031;-46
2022/02/14 01:47:41;;;;;;;16.10;10.20;;;2.50;85.30;;;;;;1898371;75;21035;-45
2022/02/14 01:50:13;;;;;;;13.75;9.73;;;2.50;85.30;;;;;;1898272;75;21023;-45
2022/02/14 01:52:42;;;;;;;17.15;10.70;;;2.50;85.40;;;;;;1898323;75;21030;-45
2022/02/14 01:55:13;;;;;;;15.60;9.98;;;2.50;85.40;;;;;;1898342;75;21027;-45
2022/02/14 01:57:43;;;;;;;16.30;10.23;;;2.40;85.30;;;;;;1898357;75;21593;-45
2022/02/14 02:00:18;;;;;;;19.30;10.60;;;2.40;85.40;;;;;;1898354;75;21036;-45
2022/02/14 02:02:47;;;;;;;14.78;10.15;;;2.40;85.40;;;;;;1898475;75;21024;-45
2022/02/14 02:05:16;;;;;;;19.62;9.55;;;2.40;85.20;;;;;;1898299;75;21160;-44
2022/02/14 02:07:46;;;;;;;17.05;9.63;;;2.30;85.30;;;;;;1903189;75;21121;-45
2022/02/14 02:10:16;;;;;;;17.48;10.68;;;2.30;85.40;;;;;;1903291;75;21110;-45
2022/02/14 02:12:56;;;;;;;17.27;11.35;;;2.30;85.40;;;;;;1903379;75;21557;-45
2022/02/14 02:15:25;;;;;;;33.25;11.65;;;2.30;85.50;;;;;;1903367;75;21156;-45
2022/02/14 02:17:55;;;;;;;20.02;11.43;;;2.30;85.50;;;;;;1903335;75;21035;-45
2022/02/14 02:20:24;;;;;;;26.25;11.75;;;2.30;85.60;;;;;;1903342;75;21034;-45
2022/02/14 02:22:54;;;;;;;18.37;10.13;;;2.30;85.80;;;;;;1903363;75;21034;-45
2022/02/14 02:25:23;;;;;;;24.85;12.60;;;2.30;85.70;;;;;;1903349;75;21074;-45
2022/02/14 02:27:52;;;;;;;16.80;9.40;;;2.20;85.70;;;;;;1903308;75;21007;-45
2022/02/14 02:30:22;;;;;;;22.48;11.83;;;2.20;85.70;;;;;;1903486;75;21031;-45
2022/02/14 02:32:53;;;;;;;27.37;12.03;;;2.20;85.80;;;;;;1903432;75;21105;-45
2022/02/14 02:35:22;;;;;;;24.32;12.35;;;2.20;85.70;;;;;;1903476;75;21028;-46
2022/02/14 02:37:52;;;;;;;23.40;11.40;;;2.20;85.80;;;;;;1903362;75;21100;-45
2022/02/14 02:40:21;;;;;;;21.62;12.82;;;2.20;85.90;;;;;;1903308;75;21031;-45
2022/02/14 02:42:51;;;;;;;28.47;12.80;;;2.20;85.90;;;;;;1903534;75;21020;-45
2022/02/14 02:45:20;;;;;;;17.62;11.15;;;2.20;85.90;;;;;;1903331;75;21121;-45
2022/02/14 02:47:50;;;;;;;25.17;11.65;;;2.20;86.00;;;;;;1903566;75;21097;-46
2022/02/14 02:50:19;;;;;;;34.63;12.37;;;2.20;85.90;;;;;;1903274;75;21011;-45
2022/02/14 02:52:49;;;;;;;27.45;12.33;;;2.20;85.90;;;;;;1903337;75;21034;-45
2022/02/14 02:55:18;;;;;;;21.20;12.15;;;2.20;85.80;;;;;;1903286;75;21039;-45
2022/02/14 02:57:48;;;;;;;29.05;14.58;;;2.20;85.70;;;;;;1903439;75;21051;-45
2022/02/14 03:00:17;;;;;;;20.57;13.38;;;2.10;85.60;;;;;;1903415;75;21089;-45
2022/02/14 03:02:46;;;;;;;23.45;14.18;;;2.20;85.70;;;;;;1903302;75;21504;-45
2022/02/14 03:05:15;;;;;;;20.45;14.55;;;2.10;85.60;;;;;;1903391;75;21047;-45
2022/02/14 03:07:45;;;;;;;25.37;13.62;;;2.10;85.70;;;;;;1899882;75;21070;-45
2022/02/14 03:10:14;;;;;;;30.02;13.62;;;2.10;85.90;;;;;;1898257;75;21039;-45
2022/02/14 03:12:44;;;;;;;24.98;14.30;;;2.10;85.80;;;;;;1898356;75;21075;-45
2022/02/14 03:15:13;;;;;;;24.92;13.78;;;2.10;85.80;;;;;;1898278;75;21075;-45
2022/02/14 03:17:43;;;;;;;29.40;15.13;;;2.00;85.70;;;;;;1898549;75;21113;-45
2022/02/14 03:20:12;;;;;;;46.23;14.25;;;2.00;85.70;;;;;;1898304;75;21104;-45
2022/02/14 03:22:42;;;;;;;27.37;13.08;;;2.00;85.80;;;;;;1898380;75;21027;-45
2022/02/14 03:25:13;;;;;;;39.27;15.03;;;2.00;85.90;;;;;;1898408;75;21547;-45
2022/02/14 03:27:42;;;;;;;36.15;15.03;;;2.00;85.80;;;;;;1898429;75;21462;-45
2022/02/14 03:30:12;;;;;;;31.33;13.25;;;1.90;86.40;;;;;;1898218;75;21023;-45
2022/02/14 03:32:41;;;;;;;26.00;13.83;;;1.90;86.00;;;;;;1898242;75;21047;-46
2022/02/14 03:35:12;;;;;;;23.25;13.05;;;1.90;86.00;;;;;;1898346;75;21180;-45
2022/02/14 03:37:41;;;;;;;36.95;17.70;;;1.90;86.00;;;;;;1898394;75;21102;-45
2022/02/14 03:40:11;;;;;;;24.27;13.18;;;1.90;85.90;;;;;;1898463;75;21031;-46
2022/02/14 03:42:40;;;;;;;26.65;14.75;;;1.90;86.00;;;;;;1898481;75;21047;-45
2022/02/14 03:45:10;;;;;;;47.85;17.90;;;1.90;86.10;;;;;;1898385;75;21047;-45
2022/02/14 03:47:39;;;;;;;22.15;11.83;;;1.90;85.90;;;;;;1898395;75;21032;-45
2022/02/14 03:50:09;;;;;;;35.15;15.88;;;1.80;85.70;;;;;;1898358;75;21036;-45
2022/02/14 03:52:38;;;;;;;29.25;13.68;;;1.80;86.00;;;;;;1898373;75;21039;-45
2022/02/14 03:55:08;;;;;;;35.48;12.88;;;1.70;86.10;;;;;;1898311;75;21102;-47
2022/02/14 03:57:37;;;;;;;35.23;14.98;;;1.70;86.10;;;;;;1898499;75;21035;-46
2022/02/14 04:00:09;;;;;;;42.15;14.73;;;1.70;86.20;;;;;;1898493;75;21103;-45
2022/02/14 04:02:42;;;;;;;45.50;16.70;;;1.70;86.20;;;;;;1898591;75;21055;-45
2022/02/14 04:05:13;;;;;;;47.30;17.23;;;1.80;86.30;;;;;;1898368;75;21047;-45
2022/02/14 04:07:43;;;;;;;27.87;12.88;;;1.80;86.30;;;;;;1900475;75;21157;-45
2022/02/14 04:10:14;;;;;;;36.08;15.10;;;1.80;86.20;;;;;;1903458;75;21034;-45
2022/02/14 04:12:44;;;;;;;36.13;13.62;;;1.80;86.10;;;;;;1903356;75;21023;-45
2022/02/14 04:15:13;;;;;;;25.45;14.15;;;1.70;86.10;;;;;;1903375;75;21019;-45
2022/02/14 04:17:43;;;;;;;23.67;12.65;;;1.80;86.20;;;;;;1903414;75;21096;-45
2022/02/14 04:20:12;;;;;;;30.10;14.87;;;1.70;85.90;;;;;;1903313;75;21031;-46
2022/02/14 04:22:42;;;;;;;24.80;14.28;;;1.70;85.90;;;;;;1903374;75;21035;-45
2022/02/14 04:25:13;;;;;;;33.53;16.25;;;1.70;86.30;;;;;;1903447;75;21560;-45
2022/02/14 04:27:43;;;;;;;27.73;17.42;;;1.60;85.90;;;;;;1903393;75;21031;-45
2022/02/14 04:30:14;;;;;;;31.68;15.32;;;1.60;86.30;;;;;;1903379;75;21074;-45
2022/02/14 04:32:44;;;;;;;35.55;13.05;;;1.60;86.00;;;;;;1903455;75;21035;-45
2022/02/14 04:35:13;;;;;;;21.25;13.60;;;1.50;85.40;;;;;;1903345;75;21118;-45
2022/02/14 04:37:43;;;;;;;37.67;16.80;;;1.50;85.90;;;;;;1903413;75;21027;-45
2022/02/14 04:40:12;;;;;;;27.67;15.43;;;1.40;86.10;;;;;;1903459;75;21031;-45
2022/02/14 04:42:42;;;;;;;24.95;12.58;;;1.40;86.20;;;;;;1903409;75;21109;-44
2022/02/14 04:45:11;;;;;;;31.65;12.58;;;1.50;86.50;;;;;;1903330;75;21035;-46
2022/02/14 04:47:41;;;;;;;22.95;13.20;;;1.50;86.80;;;;;;1903403;75;20999;-45
2022/02/14 04:50:10;;;;;;;28.42;14.15;;;1.50;86.30;;;;;;1903323;75;21117;-45
2022/02/14 04:52:39;;;;;;;30.65;12.45;;;1.60;86.40;;;;;;1903354;75;21089;-45
2022/02/14 04:55:09;;;;;;;23.05;13.83;;;1.60;86.40;;;;;;1903359;75;21011;-45
2022/02/14 04:57:39;;;;;;;25.48;11.70;;;1.70;86.70;;;;;;1903432;75;21011;-47
2022/02/14 05:00:11;;;;;;;36.98;15.28;;;1.70;86.50;;;;;;1903445;75;21047;-46
2022/02/14 05:02:40;;;;;;;32.33;15.95;;;1.70;86.50;;;;;;1903366;75;21003;-46
2022/02/14 05:05:10;;;;;;;26.73;13.13;;;1.70;85.90;;;;;;1903314;75;21101;-47
2022/02/14 05:07:40;;;;;;;30.20;13.68;;;1.70;86.10;;;;;;1902875;75;21042;-46
2022/02/14 05:10:10;;;;;;;23.70;12.58;;;1.70;86.20;;;;;;1898217;75;21031;-46
2022/02/14 05:12:39;;;;;;;18.32;11.78;;;1.70;86.30;;;;;;1898285;75;21031;-46
2022/02/14 05:15:09;;;;;;;24.52;11.80;;;1.80;86.40;;;;;;1898354;75;21004;-46
2022/02/14 05:17:38;;;;;;;22.67;11.15;;;1.90;86.70;;;;;;1898409;75;21035;-46
2022/02/14 05:20:08;;;;;;;23.98;10.15;;;1.90;86.30;;;;;;1898453;75;21007;-46
2022/02/14 05:22:38;;;;;;;19.05;10.72;;;1.90;86.30;;;;;;1898348;75;21167;-47
2022/02/14 05:25:07;;;;;;;18.42;10.60;;;2.00;86.30;;;;;;1898632;75;21117;-46
2022/02/14 05:27:37;;;;;;;20.32;12.13;;;2.00;86.30;;;;;;1898438;75;21120;-46
2022/02/14 05:30:08;;;;;;;18.48;11.65;;;2.10;85.90;;;;;;1898296;75;21023;-46
2022/02/14 05:32:37;;;;;;;23.90;13.03;;;2.10;86.10;;;;;;1898382;75;21043;-46
2022/02/14 05:35:07;;;;;;;17.87;11.57;;;2.10;85.90;;;;;;1898337;75;21047;-46
2022/02/14 05:37:36;;;;;;;24.27;12.68;;;2.10;86.00;;;;;;1898313;75;21030;-47
2022/02/14 05:40:07;;;;;;;20.62;13.03;;;2.10;85.40;;;;;;1898268;75;21093;-47
2022/02/14 05:42:36;;;;;;;25.45;14.18;;;2.10;85.50;;;;;;1898336;75;21117;-46
2022/02/14 05:45:07;;;;;;;22.40;11.57;;;2.00;86.30;;;;;;1898291;75;21089;-46
2022/02/14 05:47:36;;;;;;;22.85;14.18;;;2.00;84.30;;;;;;1898319;75;21035;-47
2022/02/14 05:50:07;;;;;;;24.27;15.38;;;1.90;84.90;;;;;;1898292;75;21027;-46
2022/02/14 05:52:39;;;;;;;20.68;12.85;;;1.80;85.50;;;;;;1898359;75;21067;-46
2022/02/14 05:55:09;;;;;;;18.92;10.50;;;1.80;85.60;;;;;;1898267;75;21007;-46
2022/02/14 05:57:38;;;;;;;18.75;11.78;;;1.80;84.90;;;;;;1898263;75;21098;-46
2022/02/14 06:00:09;;;;;;;15.05;9.28;;;1.70;84.30;;;;;;1898250;75;21035;-46
2022/02/14 06:02:39;;;;;;;15.78;8.85;;;1.70;84.90;;;;;;1898403;75;21039;-46
2022/02/14 06:05:08;;;;;;;21.85;11.43;;;1.70;84.40;;;;;;1898316;75;21035;-45
2022/02/14 06:07:38;;;;;;;15.63;9.13;;;1.60;84.00;;;;;;1898303;75;21052;-45
2022/02/14 06:10:08;;;;;;;19.42;9.23;;;1.50;83.70;;;;;;1902603;75;21086;-46
2022/02/14 06:12:37;;;;;;;19.62;10.82;;;1.50;83.80;;;;;;1903258;75;21105;-45
2022/02/14 06:15:07;;;;;;;32.58;13.43;;;1.40;83.30;;;;;;1903210;75;21019;-45
2022/02/14 06:17:36;;;;;;;18.67;12.10;;;1.40;85.10;;;;;;1903269;75;21031;-46
2022/02/14 06:20:07;;;;;;;20.50;11.63;;;1.40;85.30;;;;;;1903130;75;21035;-45
2022/02/14 06:22:36;;;;;;;16.80;11.05;;;1.50;86.00;;;;;;1903219;75;21034;-45
2022/02/14 06:25:06;;;;;;;17.85;10.28;;;1.60;85.50;;;;;;1903147;75;21107;-46
2022/02/14 06:27:35;;;;;;;16.60;8.95;;;1.70;84.50;;;;;;1903291;75;21157;-46
2022/02/14 06:30:06;;;;;;;15.85;11.00;;;1.70;83.70;;;;;;1903271;75;21023;-45
2022/02/14 06:32:35;;;;;;;19.57;10.30;;;1.70;84.50;;;;;;1903312;75;21089;-45
2022/02/14 06:35:04;;;;;;;21.52;10.98;;;1.70;85.20;;;;;;1903369;75;21395;-46
2022/02/14 06:37:35;;;;;;;22.45;10.53;;;1.80;84.50;;;;;;1903296;75;21100;-45
2022/02/14 06:40:05;;;;;;;18.67;10.18;;;1.80;83.90;;;;;;1903439;75;21339;-45
2022/02/14 06:42:35;;;;;;;16.55;11.03;;;1.80;84.40;;;;;;1903332;75;21343;-46
2022/02/14 06:45:04;;;;;;;19.10;11.18;;;1.80;85.10;;;;;;1903275;75;21031;-46
2022/02/14 06:47:34;;;;;;;16.32;10.30;;;1.90;84.50;;;;;;1903407;75;21089;-46
2022/02/14 06:50:03;;;;;;;17.07;10.55;;;1.90;83.30;;;;;;1903314;75;21035;-46
2022/02/14 06:52:33;;;;;;;17.57;9.70;;;1.90;84.20;;;;;;1903280;75;21007;-47
2022/02/14 06:55:03;;;;;;;15.13;9.58;;;2.00;84.20;;;;;;1903378;75;21051;-45
2022/02/14 06:57:32;;;;;;;14.55;8.40;;;2.00;82.80;;;;;;1903317;75;21046;-46
2022/02/14 07:00:01;;;;;;;17.17;10.08;;;1.90;83.90;;;;;;1903405;75;21035;-47
2022/02/14 07:02:31;;;;;;;13.75;9.43;;;2.00;84.30;;;;;;1903401;75;21039;-47
2022/02/14 07:05:00;;;;;;;13.58;9.80;;;2.00;83.80;;;;;;1903339;75;21035;-45
2022/02/14 07:07:31;;;;;;;16.20;9.80;;;2.00;83.20;;;;;;1903374;75;21027;-46
2022/02/14 07:10:00;;;;;;;17.57;9.50;;;2.10;83.40;;;;;;1900579;75;21063;-47
2022/02/14 07:12:30;;;;;;;13.35;8.15;;;2.10;83.50;;;;;;1898197;75;21043;-46
2022/02/14 07:14:59;;;;;;;14.98;9.35;;;2.10;83.30;;;;;;1898290;75;21074;-46
2022/02/14 07:17:28;;;;;;;14.45;9.15;;;2.20;82.50;;;;;;1898356;75;21512;-46
2022/02/14 07:19:58;;;;;;;14.90;8.28;;;2.20;82.90;;;;;;1898472;75;21039;-46
2022/02/14 07:22:27;;;;;;;12.53;7.92;;;2.10;81.50;;;;;;1898244;75;21101;-46
2022/02/14 07:24:56;;;;;;;17.35;9.38;;;2.10;81.30;;;;;;1898211;75;21152;-46
2022/02/14 07:27:26;;;;;;;16.42;8.70;;;2.10;82.30;;;;;;1898303;75;21106;-47
2022/02/14 07:29:55;;;;;;;16.55;9.53;;;2.00;81.50;;;;;;1898268;75;21030;-46
2022/02/14 07:32:26;;;;;;;17.17;9.33;;;2.10;82.00;;;;;;1898264;75;21160;-48
2022/02/14 07:34:56;;;;;;;13.00;9.98;;;2.10;82.80;;;;;;1898273;75;21031;-47
2022/02/14 07:37:25;;;;;;;12.30;7.92;;;2.20;82.30;;;;;;1898290;75;21035;-46
2022/02/14 07:39:55;;;;;;;15.85;8.68;;;2.20;82.50;;;;;;1898370;75;21003;-47
2022/02/14 07:42:25;;;;;;;14.93;8.13;;;2.20;81.60;;;;;;1898313;75;21087;-46
2022/02/14 07:44:54;;;;;;;13.43;7.83;;;2.30;81.40;;;;;;1898348;75;21004;-46
2022/02/14 07:47:24;;;;;;;12.60;7.22;;;2.30;81.40;;;;;;1898259;75;21031;-45
2022/02/14 07:49:53;;;;;;;17.67;11.35;;;2.30;81.10;;;;;;1898286;75;21027;-45
2022/02/14 07:52:23;;;;;;;6.30;4.95;;;2.30;81.00;;;;;;1898138;75;21047;-46
2022/02/14 07:54:53;;;;;;;10.93;7.85;;;2.40;80.10;;;;;;1898299;75;21031;-46
2022/02/14 07:57:22;;;;;;;17.82;8.70;;;2.40;80.50;;;;;;1898484;75;21055;-45
2022/02/14 07:59:52;;;;;;;12.23;8.10;;;2.40;80.60;;;;;;1898349;75;21039;-45
2022/02/14 08:02:22;;;;;;;21.93;9.23;;;2.40;80.90;;;;;;1898376;75;21055;-46
2022/02/14 08:04:51;;;;;;;17.92;9.75;;;2.50;81.80;;;;;;1898360;75;21144;-45
2022/02/14 08:07:21;;;;;;;15.75;8.68;;;2.60;82.00;;;;;;1898400;75;21071;-45
2022/02/14 08:09:51;;;;;;;17.15;9.58;;;2.60;80.40;;;;;;1899376;75;21059;-46
2022/02/14 08:12:20;;;;;;;15.88;8.15;;;2.70;81.40;;;;;;1903392;75;21031;-47
2022/02/14 08:14:51;;;;;;;14.03;8.83;;;2.70;80.50;;;;;;1903446;75;21109;-46
2022/02/14 08:17:20;;;;;;;10.80;6.62;;;2.80;79.60;;;;;;1903088;75;21110;-48
2022/02/14 08:19:49;;;;;;;14.25;8.48;;;2.80;79.60;;;;;;1902016;75;21019;-47
2022/02/14 08:22:19;;;;;;;10.00;6.67;;;2.90;80.20;;;;;;1902893;75;21047;-48
2022/02/14 08:24:49;;;;;;;10.68;7.10;;;2.90;78.70;;;;;;1902881;75;21000;-48
2022/02/14 08:27:18;;;;;;;4.45;3.80;;;2.90;78.20;;;;;;1902693;75;21035;-49
2022/02/14 08:29:47;;;;;;;6.97;4.75;;;3.00;77.60;;;;;;1902911;75;21047;-46
2022/02/14 08:32:17;;;;;;;12.00;5.40;;;3.10;77.40;;;;;;1902652;75;21083;-46
2022/02/14 08:34:46;;;;;;;6.87;4.55;;;3.10;77.50;;;;;;1902677;75;21035;-47
2022/02/14 08:37:15;;;;;;;6.87;4.60;;;3.20;75.40;;;;;;1902872;75;21097;-48
2022/02/14 08:39:44;;;;;;;7.15;5.25;;;3.30;76.10;;;;;;1902820;75;21113;-47
2022/02/14 08:42:14;;;;;;;6.35;2.90;;;3.40;76.30;;;;;;1902823;75;21087;-47
2022/02/14 08:44:43;;;;;;;4.62;3.83;;;3.50;74.00;;;;;;1902924;75;21090;-47
2022/02/14 08:47:14;;;;;;;7.35;3.85;;;3.60;70.90;;;;;;1902706;75;21086;-47
2022/02/14 08:49:43;;;;;;;5.53;3.90;;;3.70;70.20;;;;;;1902907;75;21027;-46
2022/02/14 08:52:12;;;;;;;5.70;3.52;;;3.70;70.30;;;;;;1902835;75;21074;-46
2022/02/14 08:54:42;;;;;;;6.83;3.72;;;3.70;69.50;;;;;;1902804;75;22138;-49
2022/02/14 08:57:11;;;;;;;9.05;5.25;;;3.70;69.10;;;;;;1902985;75;21039;-48
2022/02/14 08:59:40;;;;;;;3.50;2.42;;;3.80;70.50;;;;;;1902677;75;21043;-47
2022/02/14 09:02:10;;;;;;;6.08;4.15;;;3.80;69.30;;;;;;1902765;75;21031;-46
2022/02/14 09:04:39;;;;;;;10.60;4.65;;;3.80;71.00;;;;;;1902826;75;21043;-46
2022/02/14 09:07:09;;;;;;;5.65;3.25;;;3.90;68.20;;;;;;1902734;75;21063;-47
2022/02/14 09:09:38;;;;;;;5.28;3.52;;;4.00;67.30;;;;;;1902633;75;21082;-48
2022/02/14 09:12:08;;;;;;;5.90;4.25;;;4.00;67.80;;;;;;1898397;75;21094;-49
2022/02/14 09:14:38;;;;;;;5.10;2.27;;;4.10;68.60;;;;;;1897780;75;21533;-47
2022/02/14 09:17:07;;;;;;;7.15;3.85;;;4.10;66.80;;;;;;1897784;75;21153;-46
2022/02/14 09:19:37;;;;;;;3.83;2.72;;;4.10;68.20;;;;;;1897805;75;21210;-48
2022/02/14 09:22:06;;;;;;;4.45;3.10;;;4.20;67.50;;;;;;1897727;75;21070;-46
2022/02/14 09:24:36;;;;;;;5.53;3.85;;;4.30;65.90;;;;;;1897538;75;21039;-46
2022/02/14 09:27:06;;;;;;;4.12;3.20;;;4.30;65.80;;;;;;1897883;75;21093;-48
2022/02/14 09:29:35;;;;;;;6.83;3.37;;;4.40;64.80;;;;;;1897812;75;21082;-47
2022/02/14 09:32:05;;;;;;;8.08;3.50;;;4.30;65.20;;;;;;1897697;75;21059;-48
2022/02/14 09:34:34;;;;;;;5.42;3.08;;;4.40;65.30;;;;;;1897857;75;21031;-46
2022/02/14 09:37:04;;;;;;;9.13;4.90;;;4.40;65.30;;;;;;1897859;75;21097;-46
